Time;durP1;ratioP1;P1;durP2;ratioP2;P2;SDS_P1;SDS_P2;PMS_P1;PMS_P2;Temp;Humidity;BMP_temperature;BMP_pressure;BME280_temperature;BME280_humidity;BME280_pressure;Samples;Min_cycle;Max_cycle;Signal;HPM_P1;HPM_P2
2023/06/26 00:00:04;;;;;;;6.00;4.88;;;21.70;99.90;;;;;;4994623;28;20023;-37
2023/06/26 00:02:32;;;;;;;7.50;5.07;;;21.70;99.90;;;;;;4994769;28;20026;-37
2023/06/26 00:05:02;;;;;;;5.50;4.82;;;21.80;99.90;;;;;;4994478;28;20026;-37
2023/06/26 00:07:28;;;;;;;7.53;4.72;;;21.70;99.90;;;;;;4994701;28;20386;-37
2023/06/26 00:09:54;;;;;;;7.07;5.20;;;21.70;99.90;;;;;;4994678;28;20030;-37
2023/06/26 00:12:19;;;;;;;5.60;4.82;;;21.70;99.90;;;;;;4994306;28;20038;-37
2023/06/26 00:14:45;;;;;;;7.10;4.97;;;21.70;99.90;;;;;;4994300;28;20398;-37
2023/06/26 00:17:11;;;;;;;5.85;4.97;;;21.70;99.90;;;;;;4994401;28;20117;-37
2023/06/26 00:19:37;;;;;;;5.40;4.65;;;21.70;99.90;;;;;;4994367;28;20030;-37
2023/06/26 00:22:03;;;;;;;7.35;5.00;;;21.70;99.90;;;;;;4994296;28;20034;-37
2023/06/26 00:24:28;;;;;;;5.53;4.65;;;21.80;99.90;;;;;;4994329;28;20037;-37
2023/06/26 00:26:54;;;;;;;6.00;4.78;;;21.70;99.90;;;;;;4992751;28;20046;-37
2023/06/26 00:29:19;;;;;;;5.60;5.00;;;21.70;99.90;;;;;;4994249;28;20544;-37
2023/06/26 00:31:45;;;;;;;5.03;4.53;;;21.70;99.90;;;;;;4994224;28;20041;-37
2023/06/26 00:34:10;;;;;;;5.93;5.03;;;21.70;99.90;;;;;;4994109;28;20068;-38
2023/06/26 00:36:36;;;;;;;5.70;5.10;;;21.70;99.90;;;;;;4993928;28;20042;-37
2023/06/26 00:39:03;;;;;;;5.57;4.75;;;21.70;99.90;;;;;;4994001;28;20121;-37
2023/06/26 00:41:29;;;;;;;6.57;4.85;;;21.70;99.90;;;;;;4994014;28;20023;-37
2023/06/26 00:43:54;;;;;;;6.47;4.80;;;21.70;99.90;;;;;;4993947;28;20041;-37
2023/06/26 00:46:20;;;;;;;6.90;4.75;;;21.70;99.90;;;;;;4993744;28;20038;-37
2023/06/26 00:48:48;;;;;;;6.22;4.90;;;21.70;99.90;;;;;;4993979;28;20026;-37
2023/06/26 00:51:14;;;;;;;5.97;5.30;;;21.70;99.90;;;;;;4993935;28;20031;-38
2023/06/26 00:53:39;;;;;;;6.05;5.05;;;21.70;99.90;;;;;;4993814;28;20022;-37
2023/06/26 00:56:05;;;;;;;5.43;4.53;;;21.70;99.90;;;;;;4993679;28;20510;-37
2023/06/26 00:58:31;;;;;;;6.22;5.07;;;21.70;99.90;;;;;;4993619;28;20034;-37
2023/06/26 01:00:57;;;;;;;6.80;5.50;;;21.70;99.90;;;;;;4993768;28;20393;-37
2023/06/26 01:03:24;;;;;;;6.18;5.03;;;21.70;99.90;;;;;;4993596;28;20026;-37
2023/06/26 01:05:52;;;;;;;6.65;4.95;;;21.60;99.90;;;;;;4993756;28;20030;-37
2023/06/26 01:08:19;;;;;;;5.78;5.18;;;21.70;99.90;;;;;;4992620;28;20096;-37
2023/06/26 01:10:45;;;;;;;8.07;5.28;;;21.70;99.90;;;;;;4993388;28;20026;-38
2023/06/26 01:13:16;;;;;;;5.15;4.65;;;21.70;99.90;;;;;;4993273;28;20034;-37
2023/06/26 01:15:41;;;;;;;5.43;4.85;;;21.70;99.90;;;;;;4993174;28;20030;-37
2023/06/26 01:18:07;;;;;;;6.13;5.10;;;21.60;99.90;;;;;;4992157;28;20040;-37
2023/06/26 01:20:37;;;;;;;5.10;4.60;;;21.60;99.90;;;;;;4993313;28;20054;-37
2023/06/26 01:23:20;;;;;;;5.68;4.80;;;21.70;99.90;;;;;;4993259;28;20478;-37
2023/06/26 01:26:14;;;;;;;6.13;5.10;;;21.70;99.90;;;;;;4992922;28;20475;-37
2023/06/26 01:28:42;;;;;;;5.82;5.00;;;21.60;99.90;;;;;;4993107;28;20030;-37
2023/06/26 01:31:10;;;;;;;6.13;5.25;;;21.70;99.90;;;;;;4993114;28;20490;-37
2023/06/26 01:33:36;;;;;;;5.88;5.05;;;21.70;99.90;;;;;;4992883;28;20564;-37
2023/06/26 01:36:03;;;;;;;6.47;5.20;;;21.60;99.90;;;;;;4992748;28;20030;-38
2023/06/26 01:38:28;;;;;;;5.75;5.07;;;21.70;99.90;;;;;;4993060;28;20369;-37
2023/06/26 01:40:54;;;;;;;6.97;4.60;;;21.70;99.90;;;;;;4992859;28;20437;-38
2023/06/26 01:43:51;;;;;;;5.38;4.80;;;21.70;99.90;;;;;;4992900;28;20069;-37
2023/06/26 01:46:27;;;;;;;6.10;5.22;;;21.60;99.90;;;;;;4992527;28;20161;-37
2023/06/26 01:49:18;;;;;;;5.78;4.90;;;21.60;99.90;;;;;;4992824;28;20529;-37
2023/06/26 01:52:00;;;;;;;6.07;4.88;;;21.60;99.90;;;;;;4992840;28;20024;-37
2023/06/26 01:54:30;;;;;;;5.75;4.68;;;21.60;99.90;;;;;;4992660;28;20030;-37
2023/06/26 01:56:57;;;;;;;6.10;4.90;;;21.60;99.90;;;;;;4992466;28;20026;-37
2023/06/26 01:59:23;;;;;;;5.47;4.65;;;21.60;99.90;;;;;;4992570;28;20066;-37
2023/06/26 02:01:49;;;;;;;6.43;4.75;;;21.60;99.90;;;;;;4992573;28;20102;-37
2023/06/26 02:04:15;;;;;;;6.20;5.22;;;21.60;99.90;;;;;;4992494;28;20125;-37
2023/06/26 02:06:40;;;;;;;5.68;4.95;;;21.60;99.90;;;;;;4992290;28;20488;-37
2023/06/26 02:09:06;;;;;;;5.32;4.82;;;21.60;99.90;;;;;;4992523;28;20470;-37
2023/06/26 02:11:31;;;;;;;6.95;4.95;;;21.60;99.90;;;;;;4991119;28;20026;-37
2023/06/26 02:13:57;;;;;;;5.68;4.88;;;21.60;99.90;;;;;;5013158;23;20045;-37
2023/06/26 02:16:23;;;;;;;6.25;4.70;;;21.60;99.90;;;;;;4992128;28;20065;-37
2023/06/26 02:18:48;;;;;;;6.22;5.00;;;21.60;99.90;;;;;;4992023;28;20041;-37
2023/06/26 02:21:14;;;;;;;6.07;4.90;;;21.60;99.90;;;;;;4992260;28;20053;-37
2023/06/26 02:23:40;;;;;;;6.55;5.25;;;21.60;99.90;;;;;;4992139;28;20374;-40
2023/06/26 02:26:05;;;;;;;5.60;5.00;;;21.60;99.90;;;;;;4991964;28;20522;-39
2023/06/26 02:28:33;;;;;;;6.20;5.15;;;21.60;99.90;;;;;;4992227;28;20034;-37
2023/06/26 02:30:59;;;;;;;5.75;4.90;;;21.60;99.90;;;;;;4992731;28;20153;-37
2023/06/26 02:33:24;;;;;;;5.70;4.90;;;21.60;99.90;;;;;;4991148;28;20180;-39
2023/06/26 02:35:50;;;;;;;5.38;4.88;;;21.60;99.90;;;;;;4991756;28;20520;-38
2023/06/26 02:38:16;;;;;;;5.72;4.75;;;21.60;99.90;;;;;;4992340;28;20130;-39
2023/06/26 02:40:42;;;;;;;5.90;4.70;;;21.60;99.90;;;;;;4992139;28;20413;-37
2023/06/26 02:43:07;;;;;;;5.10;4.60;;;21.50;99.90;;;;;;4992479;28;20018;-38
2023/06/26 02:45:33;;;;;;;6.18;5.32;;;21.60;99.90;;;;;;4992080;28;20385;-35
2023/06/26 02:47:59;;;;;;;6.43;4.90;;;21.60;99.90;;;;;;4992119;28;20019;-35
2023/06/26 02:50:24;;;;;;;6.38;5.20;;;21.50;99.90;;;;;;4991960;28;20077;-38
2023/06/26 02:52:52;;;;;;;5.07;4.40;;;21.50;99.90;;;;;;4992180;28;20117;-38
2023/06/26 02:55:19;;;;;;;6.13;4.93;;;21.50;99.90;;;;;;4991821;28;20026;-38
2023/06/26 02:57:44;;;;;;;6.15;4.72;;;21.50;99.90;;;;;;4993138;28;20077;-37
2023/06/26 03:00:11;;;;;;;5.55;5.05;;;21.50;99.90;;;;;;4991745;28;20038;-38
2023/06/26 03:02:37;;;;;;;5.30;4.80;;;21.60;99.90;;;;;;4992074;28;20026;-36
2023/06/26 03:05:03;;;;;;;5.82;4.65;;;21.60;99.90;;;;;;4991480;28;20041;-38
2023/06/26 03:07:29;;;;;;;5.85;4.68;;;21.60;99.90;;;;;;4992226;28;20038;-37
2023/06/26 03:09:55;;;;;;;5.95;4.65;;;21.50;99.90;;;;;;4992494;28;20027;-39
2023/06/26 03:12:21;;;;;;;5.50;4.85;;;21.50;99.90;;;;;;4991737;28;20023;-37
2023/06/26 03:14:46;;;;;;;6.15;4.82;;;21.50;99.90;;;;;;4991508;28;20043;-38
2023/06/26 03:17:12;;;;;;;6.25;4.70;;;21.60;99.90;;;;;;4992222;28;20116;-37
2023/06/26 03:19:37;;;;;;;6.05;4.93;;;21.50;99.90;;;;;;4991963;28;20036;-38
2023/06/26 03:22:03;;;;;;;5.45;4.45;;;21.50;99.90;;;;;;4991666;28;20022;-38
2023/06/26 03:24:29;;;;;;;7.25;4.65;;;21.50;99.90;;;;;;4991641;28;20074;-38
2023/06/26 03:26:55;;;;;;;5.35;4.45;;;21.50;99.90;;;;;;4991582;28;20552;-37
2023/06/26 03:29:20;;;;;;;5.97;4.63;;;21.50;99.90;;;;;;4991895;28;20034;-37
2023/06/26 03:31:46;;;;;;;6.40;4.65;;;21.50;99.90;;;;;;4994498;28;20109;-38
2023/06/26 03:34:11;;;;;;;7.03;5.25;;;21.50;99.90;;;;;;4995131;28;20026;-35
2023/06/26 03:36:37;;;;;;;6.80;5.18;;;21.50;99.90;;;;;;4995167;28;20101;-37
2023/06/26 03:39:04;;;;;;;5.22;4.72;;;21.50;99.90;;;;;;4995345;28;20478;-35
2023/06/26 03:41:29;;;;;;;6.10;5.00;;;21.50;99.90;;;;;;4995342;28;20022;-35
2023/06/26 03:43:56;;;;;;;5.65;4.68;;;21.50;99.90;;;;;;4995522;28;20022;-37
2023/06/26 03:46:22;;;;;;;5.88;4.75;;;21.50;99.90;;;;;;4995001;28;20023;-37
2023/06/26 03:48:48;;;;;;;6.43;5.32;;;21.50;99.90;;;;;;4994991;28;20030;-38
2023/06/26 03:51:14;;;;;;;5.38;4.55;;;21.50;99.90;;;;;;4995631;28;20394;-38
2023/06/26 03:53:40;;;;;;;5.82;4.90;;;21.50;99.90;;;;;;4995253;28;20030;-37
2023/06/26 03:56:05;;;;;;;5.38;4.85;;;21.50;99.90;;;;;;4994668;28;20077;-36
2023/06/26 03:58:31;;;;;;;5.43;4.47;;;21.50;99.90;;;;;;4995798;28;20666;-37
2023/06/26 04:00:57;;;;;;;5.20;4.70;;;21.50;99.90;;;;;;4995391;28;20026;-36
2023/06/26 04:03:23;;;;;;;5.25;4.75;;;21.50;99.90;;;;;;4995113;28;20015;-37
2023/06/26 04:05:49;;;;;;;8.70;5.20;;;21.50;99.90;;;;;;4995262;28;20034;-35
2023/06/26 04:08:15;;;;;;;7.45;4.90;;;21.50;99.90;;;;;;4994667;28;20030;-39
2023/06/26 04:10:40;;;;;;;7.03;5.18;;;21.50;99.90;;;;;;4994650;28;20026;-40
2023/06/26 04:13:06;;;;;;;6.45;5.20;;;21.50;99.90;;;;;;4993599;28;20035;-38
2023/06/26 04:15:32;;;;;;;6.53;4.97;;;21.50;99.90;;;;;;4994472;28;20031;-37
2023/06/26 04:17:57;;;;;;;5.88;5.28;;;21.40;99.90;;;;;;4994588;28;20037;-38
2023/06/26 04:20:23;;;;;;;6.53;5.20;;;21.50;99.90;;;;;;4995251;28;20503;-37
2023/06/26 04:22:49;;;;;;;5.50;4.63;;;21.50;99.90;;;;;;4994545;28;20034;-36
2023/06/26 04:25:15;;;;;;;5.18;4.55;;;21.50;99.90;;;;;;4995157;28;20077;-37
2023/06/26 04:27:41;;;;;;;6.38;4.90;;;21.40;99.90;;;;;;4993925;28;20026;-35
2023/06/26 04:30:07;;;;;;;6.03;4.70;;;21.50;99.90;;;;;;4994332;28;20534;-38
2023/06/26 04:32:33;;;;;;;5.45;4.63;;;21.40;99.90;;;;;;4994220;28;20489;-38
2023/06/26 04:34:59;;;;;;;6.20;5.18;;;21.40;99.90;;;;;;4994553;28;20122;-36
2023/06/26 04:37:25;;;;;;;5.38;4.88;;;21.50;99.90;;;;;;4994669;28;20030;-38
2023/06/26 04:39:51;;;;;;;5.35;4.75;;;21.40;99.90;;;;;;4994105;28;20440;-38
2023/06/26 04:42:16;;;;;;;5.50;4.80;;;21.40;99.90;;;;;;4993916;28;20022;-38
2023/06/26 04:44:42;;;;;;;13.05;6.18;;;21.50;99.90;;;;;;4993852;28;20023;-38
2023/06/26 04:47:08;;;;;;;10.18;5.82;;;21.30;99.90;;;;;;4994703;28;20023;-38
2023/06/26 04:49:34;;;;;;;8.35;6.45;;;20.90;99.90;;;;;;4994180;28;20745;-38
2023/06/26 04:52:00;;;;;;;9.95;6.20;;;20.70;99.90;;;;;;4994633;28;20033;-39
2023/06/26 04:54:27;;;;;;;9.75;6.43;;;20.70;99.90;;;;;;4994277;28;20023;-38
2023/06/26 04:56:52;;;;;;;6.80;6.10;;;20.70;99.90;;;;;;4993695;28;20030;-36
2023/06/26 04:59:18;;;;;;;9.15;6.82;;;20.80;99.90;;;;;;4993956;28;20036;-37
2023/06/26 05:01:47;;;;;;;8.38;6.10;;;20.90;99.90;;;;;;4993587;28;20156;-38
2023/06/26 05:04:17;;;;;;;8.07;6.30;;;21.00;99.90;;;;;;4994123;28;20034;-39
2023/06/26 05:06:43;;;;;;;8.77;6.57;;;21.00;99.90;;;;;;4993756;28;20112;-41
2023/06/26 05:09:10;;;;;;;11.20;6.50;;;21.00;99.90;;;;;;4993619;28;20065;-38
2023/06/26 05:11:36;;;;;;;8.50;6.15;;;21.10;99.90;;;;;;4993478;28;20100;-41
2023/06/26 05:14:02;;;;;;;8.20;5.90;;;21.10;99.90;;;;;;4993291;28;20057;-38
2023/06/26 05:16:27;;;;;;;8.57;6.22;;;21.10;99.90;;;;;;4993144;28;20077;-38
2023/06/26 05:18:54;;;;;;;9.10;5.97;;;21.10;99.90;;;;;;4993335;28;20497;-37
2023/06/26 05:21:20;;;;;;;8.85;6.55;;;21.20;99.90;;;;;;4993362;28;20473;-37
2023/06/26 05:23:47;;;;;;;6.68;5.95;;;21.20;99.90;;;;;;4993197;28;20030;-39
2023/06/26 05:26:13;;;;;;;8.43;6.43;;;21.20;99.90;;;;;;4993041;28;20041;-36
2023/06/26 05:28:39;;;;;;;7.35;6.03;;;21.20;99.90;;;;;;4993315;28;20073;-38
2023/06/26 05:31:05;;;;;;;9.55;6.22;;;21.30;99.90;;;;;;4993034;28;20441;-38
2023/06/26 05:33:33;;;;;;;8.07;5.75;;;21.30;99.90;;;;;;4993238;28;20034;-38
2023/06/26 05:35:59;;;;;;;8.23;5.80;;;21.20;99.90;;;;;;4992832;28;20039;-38
2023/06/26 05:38:25;;;;;;;8.52;6.22;;;21.30;99.90;;;;;;4992933;28;20026;-37
2023/06/26 05:40:51;;;;;;;7.45;5.43;;;21.30;99.90;;;;;;4993281;28;20023;-39
2023/06/26 05:43:20;;;;;;;8.32;6.47;;;21.30;99.90;;;;;;4993114;28;20061;-38
2023/06/26 05:45:48;;;;;;;7.53;5.80;;;21.30;99.90;;;;;;4993143;28;20030;-39
2023/06/26 05:48:13;;;;;;;6.68;5.57;;;21.40;99.90;;;;;;4993048;28;20022;-38
2023/06/26 05:50:41;;;;;;;7.60;5.78;;;21.30;99.90;;;;;;4993077;28;20413;-38
2023/06/26 05:53:07;;;;;;;7.13;5.75;;;21.30;99.90;;;;;;4992685;28;20015;-39
2023/06/26 05:55:33;;;;;;;7.15;5.80;;;21.30;99.90;;;;;;4992508;28;20037;-39
2023/06/26 05:58:00;;;;;;;8.25;5.82;;;21.30;99.90;;;;;;4993114;28;20045;-37
2023/06/26 06:00:27;;;;;;;8.43;5.80;;;21.40;99.90;;;;;;4992672;28;20033;-36
2023/06/26 06:02:54;;;;;;;8.93;6.07;;;21.40;99.90;;;;;;4993608;28;20029;-39
2023/06/26 06:05:20;;;;;;;6.63;5.65;;;21.40;99.90;;;;;;4992485;28;20023;-39
2023/06/26 06:07:46;;;;;;;9.27;5.53;;;21.40;99.90;;;;;;4992750;28;20062;-36
2023/06/26 06:10:12;;;;;;;6.50;5.43;;;21.40;99.90;;;;;;4992952;28;20680;-40
2023/06/26 06:12:38;;;;;;;6.13;5.40;;;21.40;99.90;;;;;;4992917;28;20030;-38
2023/06/26 06:15:04;;;;;;;6.32;5.72;;;21.40;99.90;;;;;;4992546;28;20550;-37
2023/06/26 06:17:30;;;;;;;7.50;5.60;;;21.40;99.90;;;;;;4992354;28;20122;-39
2023/06/26 06:19:55;;;;;;;7.13;5.40;;;21.40;99.90;;;;;;4992195;28;20256;-39
2023/06/26 06:22:21;;;;;;;6.63;5.30;;;21.40;99.90;;;;;;4992517;28;20045;-38
2023/06/26 06:24:49;;;;;;;6.05;5.10;;;21.40;99.90;;;;;;4993030;28;20030;-39
2023/06/26 06:27:14;;;;;;;8.50;5.85;;;21.40;99.90;;;;;;4992118;28;20022;-36
2023/06/26 06:29:40;;;;;;;7.40;5.28;;;21.40;99.90;;;;;;4990849;28;20465;-36
2023/06/26 06:32:06;;;;;;;8.48;5.80;;;21.40;99.90;;;;;;4992150;28;20180;-39
2023/06/26 06:34:32;;;;;;;8.13;5.43;;;21.50;99.90;;;;;;4991959;28;20105;-38
2023/06/26 06:36:57;;;;;;;6.22;4.90;;;21.40;99.90;;;;;;4991904;28;20450;-38
2023/06/26 06:39:23;;;;;;;7.78;5.30;;;21.40;99.90;;;;;;4992822;28;20549;-38
2023/06/26 06:41:48;;;;;;;6.47;5.32;;;21.40;99.90;;;;;;4991963;28;20024;-39
2023/06/26 06:44:14;;;;;;;8.13;5.68;;;21.50;99.90;;;;;;4991939;28;20038;-37
2023/06/26 06:46:40;;;;;;;5.75;4.85;;;21.40;99.90;;;;;;4991767;28;20484;-37
2023/06/26 06:49:05;;;;;;;6.32;5.32;;;21.50;99.90;;;;;;4992123;28;20497;-39
2023/06/26 06:51:31;;;;;;;7.60;5.55;;;21.50;99.90;;;;;;4992345;28;20034;-39
2023/06/26 06:53:56;;;;;;;6.22;4.80;;;21.40;99.90;;;;;;4992240;28;20033;-38
2023/06/26 06:56:22;;;;;;;7.32;5.47;;;21.50;99.90;;;;;;4991944;28;20801;-39
2023/06/26 06:58:48;;;;;;;7.10;5.03;;;21.50;99.90;;;;;;4992025;28;20030;-39
2023/06/26 07:01:13;;;;;;;5.43;4.85;;;21.50;99.90;;;;;;4992107;28;20022;-37
2023/06/26 07:03:40;;;;;;;6.47;5.03;;;21.50;99.90;;;;;;4992773;28;20026;-36
2023/06/26 07:06:05;;;;;;;5.95;4.95;;;21.50;99.90;;;;;;4992943;28;20018;-37
2023/06/26 07:08:31;;;;;;;5.78;5.10;;;21.50;99.90;;;;;;4995815;28;20025;-37
2023/06/26 07:10:57;;;;;;;6.45;5.30;;;21.50;99.90;;;;;;4996177;28;20501;-37
2023/06/26 07:13:23;;;;;;;6.80;4.95;;;21.50;99.90;;;;;;4995715;28;20368;-37
2023/06/26 07:15:48;;;;;;;6.72;4.97;;;21.60;99.90;;;;;;4995477;28;20465;-36
2023/06/26 07:18:14;;;;;;;5.72;4.65;;;21.50;99.90;;;;;;4995857;28;20089;-39
2023/06/26 07:20:40;;;;;;;5.85;5.07;;;21.50;99.90;;;;;;4995591;28;20026;-38
2023/06/26 07:23:06;;;;;;;5.60;5.03;;;21.50;99.90;;;;;;4995512;28;20019;-38
2023/06/26 07:25:32;;;;;;;6.05;5.10;;;21.50;99.90;;;;;;4995193;28;20489;-38
2023/06/26 07:27:57;;;;;;;6.60;5.15;;;21.50;99.90;;;;;;4995498;28;20021;-38
2023/06/26 07:30:24;;;;;;;6.53;4.95;;;21.60;99.90;;;;;;4995465;28;20096;-38
2023/06/26 07:32:50;;;;;;;6.90;5.05;;;21.60;99.90;;;;;;4995695;28;20541;-37
2023/06/26 07:35:16;;;;;;;6.05;4.60;;;21.60;99.90;;;;;;4995161;28;20528;-41
2023/06/26 07:37:42;;;;;;;5.78;4.93;;;21.60;99.90;;;;;;4995556;28;20027;-40
2023/06/26 07:40:08;;;;;;;5.43;4.93;;;21.60;99.90;;;;;;4995446;28;20034;-43
2023/06/26 07:42:34;;;;;;;5.88;4.55;;;21.60;99.90;;;;;;4995247;28;20023;-39
2023/06/26 07:44:59;;;;;;;5.95;4.88;;;21.60;99.90;;;;;;4994854;28;20411;-39
2023/06/26 07:47:25;;;;;;;5.85;5.18;;;21.60;99.90;;;;;;4995112;28;20015;-38
2023/06/26 07:49:50;;;;;;;5.68;4.82;;;21.60;99.90;;;;;;4994087;28;20034;-37
2023/06/26 07:52:18;;;;;;;6.38;4.75;;;21.70;99.90;;;;;;4995127;28;20054;-39
2023/06/26 07:54:43;;;;;;;6.07;5.10;;;21.60;99.90;;;;;;4995169;28;20105;-39
2023/06/26 07:57:09;;;;;;;5.18;4.60;;;21.70;99.90;;;;;;4995041;28;20149;-39
2023/06/26 07:59:35;;;;;;;5.30;4.70;;;21.60;99.90;;;;;;4995048;28;20034;-36
2023/06/26 08:02:01;;;;;;;5.95;4.88;;;21.60;99.90;;;;;;4994893;28;20062;-39
2023/06/26 08:04:31;;;;;;;6.35;5.15;;;21.60;99.90;;;;;;4994896;28;20380;-37
2023/06/26 08:06:58;;;;;;;5.32;4.68;;;21.70;99.90;;;;;;4994636;28;20026;-39
2023/06/26 08:09:26;;;;;;;5.10;4.45;;;21.70;99.90;;;;;;4993387;28;20030;-38
2023/06/26 08:11:52;;;;;;;5.18;4.65;;;21.60;99.90;;;;;;4994744;28;20031;-37
2023/06/26 08:14:18;;;;;;;7.55;4.82;;;21.60;99.90;;;;;;4995008;28;20037;-38
2023/06/26 08:16:44;;;;;;;5.22;4.47;;;21.60;99.90;;;;;;4993795;28;20022;-39
2023/06/26 08:19:11;;;;;;;4.65;4.07;;;21.60;99.90;;;;;;4994537;28;20019;-40
2023/06/26 08:21:37;;;;;;;5.15;4.38;;;21.70;99.90;;;;;;4995150;28;20061;-38
2023/06/26 08:24:03;;;;;;;4.80;4.07;;;21.70;99.90;;;;;;4994360;28;20090;-39
2023/06/26 08:26:29;;;;;;;6.35;4.10;;;21.70;99.90;;;;;;4994218;28;20101;-38
2023/06/26 08:28:55;;;;;;;5.93;4.70;;;21.70;99.90;;;;;;4994376;28;20026;-39
2023/06/26 08:31:20;;;;;;;5.20;4.65;;;21.70;99.90;;;;;;4994317;28;20104;-37
2023/06/26 08:33:47;;;;;;;4.90;4.40;;;21.70;99.90;;;;;;4995037;28;20043;-36
2023/06/26 08:36:13;;;;;;;4.95;4.25;;;21.70;99.90;;;;;;4994349;28;20030;-38
2023/06/26 08:38:40;;;;;;;4.90;4.40;;;21.80;99.90;;;;;;4994084;28;20026;-38
2023/06/26 08:41:09;;;;;;;6.45;4.55;;;21.80;99.90;;;;;;4994161;28;20370;-39
2023/06/26 08:43:36;;;;;;;4.82;4.32;;;21.80;99.90;;;;;;4994014;28;20105;-38
2023/06/26 08:46:02;;;;;;;4.50;4.05;;;21.80;99.90;;;;;;4994141;28;20101;-39
2023/06/26 08:48:33;;;;;;;5.47;4.18;;;21.80;99.90;;;;;;4994212;28;20371;-39
2023/06/26 08:51:02;;;;;;;5.28;4.60;;;21.80;99.90;;;;;;4994967;28;20089;-39
2023/06/26 08:53:28;;;;;;;5.28;4.45;;;21.80;99.90;;;;;;4995018;28;20042;-40
2023/06/26 08:55:57;;;;;;;4.45;4.05;;;21.80;99.90;;;;;;4993634;28;20023;-38
2023/06/26 08:58:22;;;;;;;4.65;3.95;;;21.80;99.90;;;;;;4993910;28;20500;-39
2023/06/26 09:00:49;;;;;;;4.80;4.30;;;21.80;99.90;;;;;;4994397;28;20034;-38
2023/06/26 09:03:15;;;;;;;5.80;4.55;;;21.80;99.90;;;;;;4993711;28;20385;-38
2023/06/26 09:05:41;;;;;;;4.60;3.88;;;21.80;99.90;;;;;;4993315;28;20027;-39
2023/06/26 09:08:07;;;;;;;4.13;3.72;;;21.80;99.90;;;;;;4993934;28;20508;-39
2023/06/26 09:10:33;;;;;;;5.18;4.13;;;21.80;99.90;;;;;;4992298;28;20033;-40
2023/06/26 09:13:00;;;;;;;4.80;4.30;;;21.90;99.90;;;;;;4993352;28;20113;-38
2023/06/26 09:15:28;;;;;;;4.13;3.67;;;21.80;99.90;;;;;;4993247;28;20030;-39
2023/06/26 09:17:57;;;;;;;6.22;4.38;;;21.80;99.90;;;;;;4993383;28;20076;-38
2023/06/26 09:20:23;;;;;;;5.10;4.00;;;21.80;99.90;;;;;;4993667;28;20031;-36
2023/06/26 09:22:50;;;;;;;4.50;3.95;;;21.90;99.90;;;;;;4993308;28;20380;-39
2023/06/26 09:25:17;;;;;;;5.55;4.10;;;21.90;99.90;;;;;;4993110;28;20022;-37
2023/06/26 09:27:43;;;;;;;4.88;4.20;;;21.90;99.90;;;;;;4994367;28;20029;-39
2023/06/26 09:30:10;;;;;;;5.70;4.13;;;21.80;99.90;;;;;;4992713;28;20085;-39
2023/06/26 09:32:39;;;;;;;4.57;4.05;;;21.90;99.90;;;;;;4993434;28;20378;-39
2023/06/26 09:35:05;;;;;;;4.68;3.90;;;21.90;99.90;;;;;;4993345;28;20034;-39
2023/06/26 09:37:30;;;;;;;4.72;4.00;;;21.90;99.90;;;;;;4993613;28;20337;-40
2023/06/26 09:39:56;;;;;;;4.63;4.13;;;21.90;99.90;;;;;;4993373;28;20026;-38
2023/06/26 09:42:23;;;;;;;5.10;4.00;;;21.90;99.90;;;;;;4993157;28;20033;-39
2023/06/26 09:44:50;;;;;;;4.25;3.85;;;21.90;99.90;;;;;;4992636;28;20030;-40
2023/06/26 09:47:18;;;;;;;4.60;3.85;;;21.90;99.90;;;;;;4992779;28;20026;-36
2023/06/26 09:49:43;;;;;;;6.18;4.10;;;21.90;99.90;;;;;;4992872;28;20034;-38
2023/06/26 09:52:09;;;;;;;4.45;3.78;;;21.90;99.90;;;;;;4992849;28;20037;-41
2023/06/26 09:54:36;;;;;;;4.25;3.50;;;21.90;99.90;;;;;;4992664;28;20030;-36
2023/06/26 09:57:13;;;;;;;5.32;4.35;;;21.90;99.90;;;;;;4992799;28;20397;-37
2023/06/26 09:59:39;;;;;;;6.10;4.63;;;22.00;99.90;;;;;;4992409;28;20022;-35
2023/06/26 10:02:05;;;;;;;8.02;4.82;;;22.20;99.90;;;;;;4992609;28;20022;-36
2023/06/26 10:04:32;;;;;;;6.18;4.85;;;22.40;99.90;;;;;;4992543;28;20031;-35
2023/06/26 10:07:01;;;;;;;6.88;5.13;;;22.60;99.90;;;;;;4992403;28;20031;-35
2023/06/26 10:09:27;;;;;;;5.57;4.45;;;22.70;99.90;;;;;;4992704;28;20364;-35
2023/06/26 10:12:02;;;;;;;6.53;4.93;;;22.80;99.80;;;;;;4992446;28;20467;-35
2023/06/26 10:14:33;;;;;;;5.60;4.80;;;23.00;99.70;;;;;;4992167;28;20530;-35
2023/06/26 10:17:01;;;;;;;6.95;5.00;;;23.20;99.70;;;;;;4992251;28;20033;-36
2023/06/26 10:19:28;;;;;;;8.27;5.22;;;23.40;99.90;;;;;;4992292;28;20034;-37
2023/06/26 10:21:54;;;;;;;9.48;5.20;;;23.50;99.90;;;;;;4992371;28;20393;-36
2023/06/26 10:24:24;;;;;;;11.30;5.20;;;23.60;99.90;;;;;;4992177;28;20028;-35
2023/06/26 10:26:55;;;;;;;12.85;5.25;;;23.80;99.90;;;;;;4991945;28;20025;-36
2023/06/26 10:29:22;;;;;;;7.78;5.18;;;23.80;99.90;;;;;;4992427;28;20398;-35
2023/06/26 10:31:52;;;;;;;6.38;4.93;;;23.90;99.90;;;;;;4992167;28;20030;-35
2023/06/26 10:34:18;;;;;;;8.25;5.78;;;24.00;99.90;;;;;;4992203;28;20560;-35
2023/06/26 10:36:44;;;;;;;5.65;4.68;;;24.10;99.90;;;;;;4991944;28;20054;-36
2023/06/26 10:39:09;;;;;;;9.13;5.30;;;24.10;99.90;;;;;;4992018;28;20418;-35
2023/06/26 10:41:41;;;;;;;10.65;5.55;;;24.20;99.90;;;;;;4991889;28;20053;-37
2023/06/26 10:44:17;;;;;;;7.97;5.10;;;24.20;99.90;;;;;;4992112;28;20046;-35
2023/06/26 10:46:53;;;;;;;8.00;5.13;;;24.30;99.90;;;;;;4991835;28;20541;-36
2023/06/26 10:49:20;;;;;;;5.38;4.70;;;24.40;99.90;;;;;;4991942;28;20437;-35
2023/06/26 10:51:50;;;;;;;7.18;5.65;;;24.40;99.90;;;;;;4991819;28;20022;-37
2023/06/26 10:54:20;;;;;;;7.47;4.85;;;24.40;99.90;;;;;;4991822;28;20026;-37
2023/06/26 10:56:50;;;;;;;6.00;5.22;;;24.50;99.90;;;;;;4991672;28;20105;-36
2023/06/26 10:59:20;;;;;;;10.77;5.25;;;24.50;99.90;;;;;;4991803;28;20398;-35
2023/06/26 11:01:57;;;;;;;8.52;5.60;;;24.60;99.90;;;;;;4991874;28;20093;-35
2023/06/26 11:04:47;;;;;;;8.32;5.32;;;24.60;99.90;;;;;;4991597;28;20022;-35
2023/06/26 11:07:17;;;;;;;7.15;5.10;;;24.60;99.90;;;;;;4986550;28;20046;-37
2023/06/26 11:09:56;;;;;;;5.88;4.78;;;24.60;99.90;;;;;;4991900;28;20028;-35
2023/06/26 11:12:38;;;;;;;8.60;5.15;;;24.70;99.90;;;;;;4991687;28;20030;-35
2023/06/26 11:15:14;;;;;;;7.13;5.25;;;24.80;99.90;;;;;;4991335;28;20034;-35
2023/06/26 11:17:41;;;;;;;8.85;5.22;;;24.70;99.80;;;;;;4991707;28;20037;-35
2023/06/26 11:20:12;;;;;;;8.60;5.00;;;24.70;99.90;;;;;;4991590;28;20041;-37
2023/06/26 11:22:39;;;;;;;5.75;4.63;;;24.70;99.90;;;;;;4991659;28;20026;-37
2023/06/26 11:25:06;;;;;;;6.88;4.90;;;24.80;99.90;;;;;;4991233;28;20589;-35
2023/06/26 11:27:40;;;;;;;6.32;4.95;;;24.80;99.90;;;;;;4991653;28;20023;-35
2023/06/26 11:30:06;;;;;;;6.07;5.22;;;24.90;99.90;;;;;;4991622;28;20105;-37
2023/06/26 11:32:32;;;;;;;8.50;4.95;;;24.90;99.90;;;;;;4991557;28;20394;-35
2023/06/26 11:35:01;;;;;;;5.35;4.82;;;24.90;99.90;;;;;;4991273;28;20029;-37
2023/06/26 11:37:27;;;;;;;18.50;6.28;;;24.90;99.90;;;;;;4991518;28;20031;-39
2023/06/26 11:39:53;;;;;;;10.50;4.97;;;24.90;99.90;;;;;;4991397;28;20132;-40
2023/06/26 11:42:20;;;;;;;8.55;4.55;;;25.00;99.90;;;;;;4991433;28;20022;-37
2023/06/26 11:44:47;;;;;;;8.20;5.00;;;25.00;99.90;;;;;;4991276;28;20180;-38
2023/06/26 11:47:18;;;;;;;9.55;5.53;;;24.90;99.90;;;;;;4991490;28;20034;-37
2023/06/26 11:49:48;;;;;;;7.70;4.88;;;24.90;99.90;;;;;;4991496;28;20408;-35
2023/06/26 11:52:15;;;;;;;8.55;5.15;;;24.80;99.90;;;;;;4992546;28;20434;-37
2023/06/26 11:54:42;;;;;;;8.30;4.68;;;24.70;99.90;;;;;;4994910;28;20444;-37
2023/06/26 11:57:08;;;;;;;12.25;4.80;;;24.60;99.90;;;;;;4994865;28;20093;-38
2023/06/26 11:59:36;;;;;;;5.95;4.57;;;24.50;99.90;;;;;;4994917;28;20030;-35
2023/06/26 12:02:12;;;;;;;7.72;4.90;;;24.50;99.90;;;;;;4994882;28;20022;-36
2023/06/26 12:04:41;;;;;;;6.97;4.75;;;24.50;99.90;;;;;;4994672;28;20133;-37
2023/06/26 12:07:08;;;;;;;7.00;5.30;;;24.40;99.90;;;;;;4994684;28;20541;-38
2023/06/26 12:09:47;;;;;;;6.25;4.70;;;24.40;99.90;;;;;;4994735;28;20496;-35
2023/06/26 12:12:16;;;;;;;9.15;4.63;;;24.30;99.90;;;;;;4994729;28;20452;-38
2023/06/26 12:14:42;;;;;;;6.90;4.82;;;24.30;99.90;;;;;;4994419;28;20038;-37
2023/06/26 12:17:13;;;;;;;6.63;4.80;;;24.20;99.90;;;;;;4994436;28;20030;-38
2023/06/26 12:19:43;;;;;;;7.28;4.78;;;24.10;99.90;;;;;;4994964;28;20068;-39
2023/06/26 12:22:09;;;;;;;7.43;4.72;;;24.10;99.90;;;;;;4994490;28;20033;-35
2023/06/26 12:24:39;;;;;;;7.28;4.40;;;24.10;99.90;;;;;;4994413;28;20030;-37
2023/06/26 12:27:09;;;;;;;6.00;4.95;;;24.10;99.90;;;;;;4994397;28;20027;-37
2023/06/26 12:29:36;;;;;;;6.05;4.50;;;24.00;99.90;;;;;;4994332;28;20109;-37
2023/06/26 12:32:02;;;;;;;4.88;4.38;;;24.00;99.90;;;;;;4994344;28;20030;-36
2023/06/26 12:34:33;;;;;;;5.95;4.55;;;24.00;99.90;;;;;;4994199;28;20370;-38
2023/06/26 12:37:10;;;;;;;5.22;4.50;;;24.00;99.90;;;;;;4992809;28;20023;-35
2023/06/26 12:39:48;;;;;;;6.10;4.30;;;23.90;99.90;;;;;;4994193;28;20038;-38
2023/06/26 12:42:24;;;;;;;5.80;4.78;;;23.90;99.90;;;;;;4993993;28;20077;-36
2023/06/26 12:44:51;;;;;;;5.43;4.65;;;23.90;99.90;;;;;;4993948;28;20030;-37